sensor_id;sensor_type;location;lat;lon;timestamp;P1;durP1;ratioP1;P2;durP2;ratioP2
18610;SDS011;9435;52.122;5.502;2022-11-20T00:01:28;31.27;;;12.50;;
18610;SDS011;9435;52.122;5.502;2022-11-20T00:03:55;29.27;;;11.27;;
18610;SDS011;9435;52.122;5.502;2022-11-20T00:06:25;27.83;;;11.80;;
18610;SDS011;9435;52.122;5.502;2022-11-20T00:08:54;28.02;;;11.70;;
18610;SDS011;9435;52.122;5.502;2022-11-20T00:11:23;27.42;;;11.48;;
18610;SDS011;9435;52.122;5.502;2022-11-20T00:13:52;24.90;;;10.75;;
18610;SDS011;9435;52.122;5.502;2022-11-20T00:16:20;30.58;;;12.02;;
18610;SDS011;9435;52.122;5.502;2022-11-20T00:18:49;25.92;;;11.23;;
18610;SDS011;9435;52.122;5.502;2022-11-20T00:21:17;25.92;;;11.48;;
18610;SDS011;9435;52.122;5.502;2022-11-20T00:23:47;26.10;;;11.10;;
18610;SDS011;9435;52.122;5.502;2022-11-20T00:26:16;26.83;;;11.43;;
18610;SDS011;9435;52.122;5.502;2022-11-20T00:28:48;26.35;;;10.70;;
18610;SDS011;9435;52.122;5.502;2022-11-20T00:31:16;25.48;;;11.23;;
18610;SDS011;9435;52.122;5.502;2022-11-20T00:33:43;25.05;;;10.88;;
18610;SDS011;9435;52.122;5.502;2022-11-20T00:36:12;28.13;;;11.77;;
18610;SDS011;9435;52.122;5.502;2022-11-20T00:38:40;28.73;;;11.75;;
18610;SDS011;9435;52.122;5.502;2022-11-20T00:41:10;31.50;;;12.65;;
18610;SDS011;9435;52.122;5.502;2022-11-20T00:43:38;30.75;;;12.30;;
18610;SDS011;9435;52.122;5.502;2022-11-20T00:46:05;28.42;;;11.70;;
18610;SDS011;9435;52.122;5.502;2022-11-20T00:48:34;32.33;;;13.25;;
18610;SDS011;9435;52.122;5.502;2022-11-20T00:51:01;31.85;;;13.18;;
18610;SDS011;9435;52.122;5.502;2022-11-20T00:53:28;31.85;;;12.52;;
18610;SDS011;9435;52.122;5.502;2022-11-20T00:55:57;30.83;;;12.60;;
18610;SDS011;9435;52.122;5.502;2022-11-20T00:58:30;30.55;;;12.90;;
18610;SDS011;9435;52.122;5.502;2022-11-20T01:01:01;32.80;;;13.35;;
18610;SDS011;9435;52.122;5.502;2022-11-20T01:03:30;31.58;;;13.27;;
18610;SDS011;9435;52.122;5.502;2022-11-20T01:05:59;31.17;;;13.10;;
18610;SDS011;9435;52.122;5.502;2022-11-20T01:08:28;31.95;;;12.90;;
18610;SDS011;9435;52.122;5.502;2022-11-20T01:10:58;30.35;;;13.23;;
18610;SDS011;9435;52.122;5.502;2022-11-20T01:13:26;33.45;;;13.63;;
18610;SDS011;9435;52.122;5.502;2022-11-20T01:16:08;32.55;;;12.80;;
18610;SDS011;9435;52.122;5.502;2022-11-20T01:18:37;31.02;;;12.38;;
18610;SDS011;9435;52.122;5.502;2022-11-20T01:21:09;30.23;;;12.63;;
18610;SDS011;9435;52.122;5.502;2022-11-20T01:23:39;33.13;;;13.07;;
18610;SDS011;9435;52.122;5.502;2022-11-20T01:26:11;29.17;;;12.65;;
18610;SDS011;9435;52.122;5.502;2022-11-20T01:28:41;28.33;;;11.90;;
18610;SDS011;9435;52.122;5.502;2022-11-20T01:31:17;33.45;;;13.27;;
18610;SDS011;9435;52.122;5.502;2022-11-20T01:33:48;32.03;;;12.80;;
18610;SDS011;9435;52.122;5.502;2022-11-20T01:36:17;29.90;;;12.50;;
18610;SDS011;9435;52.122;5.502;2022-11-20T01:38:46;31.02;;;12.48;;
18610;SDS011;9435;52.122;5.502;2022-11-20T01:41:14;30.95;;;12.30;;
18610;SDS011;9435;52.122;5.502;2022-11-20T01:44:16;29.60;;;12.00;;
18610;SDS011;9435;52.122;5.502;2022-11-20T01:46:47;28.10;;;12.20;;
18610;SDS011;9435;52.122;5.502;2022-11-20T01:49:21;25.58;;;10.98;;
18610;SDS011;9435;52.122;5.502;2022-11-20T01:51:51;35.03;;;12.70;;
18610;SDS011;9435;52.122;5.502;2022-11-20T01:54:23;33.10;;;12.57;;
18610;SDS011;9435;52.122;5.502;2022-11-20T01:56:54;31.33;;;12.27;;
18610;SDS011;9435;52.122;5.502;2022-11-20T01:59:25;29.80;;;12.68;;
18610;SDS011;9435;52.122;5.502;2022-11-20T02:01:55;29.58;;;12.77;;
18610;SDS011;9435;52.122;5.502;2022-11-20T02:04:23;33.45;;;13.75;;
18610;SDS011;9435;52.122;5.502;2022-11-20T02:06:51;30.50;;;12.32;;
18610;SDS011;9435;52.122;5.502;2022-11-20T02:09:24;31.52;;;12.20;;
18610;SDS011;9435;52.122;5.502;2022-11-20T02:11:51;32.42;;;13.10;;
18610;SDS011;9435;52.122;5.502;2022-11-20T02:14:18;31.80;;;12.95;;
18610;SDS011;9435;52.122;5.502;2022-11-20T02:16:45;32.75;;;12.88;;
18610;SDS011;9435;52.122;5.502;2022-11-20T02:19:16;28.33;;;12.23;;
18610;SDS011;9435;52.122;5.502;2022-11-20T02:21:51;31.23;;;12.90;;
18610;SDS011;9435;52.122;5.502;2022-11-20T02:24:26;27.45;;;11.65;;
18610;SDS011;9435;52.122;5.502;2022-11-20T02:26:53;27.83;;;11.93;;
18610;SDS011;9435;52.122;5.502;2022-11-20T02:29:25;32.03;;;12.27;;
18610;SDS011;9435;52.122;5.502;2022-11-20T02:31:57;28.35;;;11.57;;
18610;SDS011;9435;52.122;5.502;2022-11-20T02:34:26;28.27;;;11.88;;
18610;SDS011;9435;52.122;5.502;2022-11-20T02:36:54;28.70;;;11.80;;
18610;SDS011;9435;52.122;5.502;2022-11-20T02:39:22;31.45;;;12.63;;
18610;SDS011;9435;52.122;5.502;2022-11-20T02:41:53;28.67;;;11.75;;
18610;SDS011;9435;52.122;5.502;2022-11-20T02:44:21;30.48;;;12.73;;
18610;SDS011;9435;52.122;5.502;2022-11-20T02:46:48;28.92;;;12.65;;
18610;SDS011;9435;52.122;5.502;2022-11-20T02:49:15;28.15;;;12.05;;
18610;SDS011;9435;52.122;5.502;2022-11-20T02:51:42;30.60;;;12.73;;
18610;SDS011;9435;52.122;5.502;2022-11-20T02:54:09;28.33;;;12.43;;
18610;SDS011;9435;52.122;5.502;2022-11-20T02:56:38;32.13;;;12.32;;
18610;SDS011;9435;52.122;5.502;2022-11-20T02:59:05;30.23;;;12.52;;
18610;SDS011;9435;52.122;5.502;2022-11-20T03:01:33;27.92;;;12.32;;
18610;SDS011;9435;52.122;5.502;2022-11-20T03:04:00;30.02;;;12.73;;
18610;SDS011;9435;52.122;5.502;2022-11-20T03:06:27;33.17;;;12.23;;
18610;SDS011;9435;52.122;5.502;2022-11-20T03:08:54;27.83;;;12.13;;
18610;SDS011;9435;52.122;5.502;2022-11-20T03:11:21;25.67;;;11.25;;
18610;SDS011;9435;52.122;5.502;2022-11-20T03:13:50;32.17;;;12.32;;
18610;SDS011;9435;52.122;5.502;2022-11-20T03:16:17;30.90;;;12.43;;
18610;SDS011;9435;52.122;5.502;2022-11-20T03:18:46;28.13;;;11.30;;
18610;SDS011;9435;52.122;5.502;2022-11-20T03:21:13;28.80;;;11.82;;
18610;SDS011;9435;52.122;5.502;2022-11-20T03:23:41;29.13;;;12.05;;
18610;SDS011;9435;52.122;5.502;2022-11-20T03:26:09;28.65;;;11.95;;
18610;SDS011;9435;52.122;5.502;2022-11-20T03:28:37;31.23;;;12.48;;
18610;SDS011;9435;52.122;5.502;2022-11-20T03:31:07;30.65;;;11.68;;
18610;SDS011;9435;52.122;5.502;2022-11-20T03:33:35;28.70;;;11.73;;
18610;SDS011;9435;52.122;5.502;2022-11-20T03:36:03;31.10;;;12.40;;
18610;SDS011;9435;52.122;5.502;2022-11-20T03:38:31;34.15;;;12.20;;
18610;SDS011;9435;52.122;5.502;2022-11-20T03:40:59;29.15;;;12.02;;
18610;SDS011;9435;52.122;5.502;2022-11-20T03:43:27;32.08;;;12.80;;
18610;SDS011;9435;52.122;5.502;2022-11-20T03:45:55;27.55;;;11.63;;
18610;SDS011;9435;52.122;5.502;2022-11-20T03:48:23;28.33;;;12.02;;
18610;SDS011;9435;52.122;5.502;2022-11-20T03:50:50;29.08;;;11.95;;
18610;SDS011;9435;52.122;5.502;2022-11-20T03:53:18;32.85;;;12.50;;
18610;SDS011;9435;52.122;5.502;2022-11-20T03:55:45;28.85;;;12.18;;
18610;SDS011;9435;52.122;5.502;2022-11-20T03:58:17;33.80;;;12.15;;
18610;SDS011;9435;52.122;5.502;2022-11-20T04:00:44;29.38;;;11.93;;
18610;SDS011;9435;52.122;5.502;2022-11-20T04:03:11;27.38;;;11.32;;
18610;SDS011;9435;52.122;5.502;2022-11-20T04:05:39;29.90;;;12.07;;
18610;SDS011;9435;52.122;5.502;2022-11-20T04:08:06;27.85;;;11.85;;
18610;SDS011;9435;52.122;5.502;2022-11-20T04:10:33;38.00;;;12.38;;
18610;SDS011;9435;52.122;5.502;2022-11-20T04:13:00;30.20;;;12.52;;
18610;SDS011;9435;52.122;5.502;2022-11-20T04:15:27;29.05;;;12.18;;
18610;SDS011;9435;52.122;5.502;2022-11-20T04:17:54;30.27;;;12.35;;
18610;SDS011;9435;52.122;5.502;2022-11-20T04:20:21;28.38;;;11.82;;
18610;SDS011;9435;52.122;5.502;2022-11-20T04:22:50;31.80;;;12.65;;
18610;SDS011;9435;52.122;5.502;2022-11-20T04:25:20;32.40;;;12.13;;
18610;SDS011;9435;52.122;5.502;2022-11-20T04:27:47;28.73;;;12.05;;
18610;SDS011;9435;52.122;5.502;2022-11-20T04:30:14;32.30;;;11.90;;
18610;SDS011;9435;52.122;5.502;2022-11-20T04:32:41;30.25;;;11.73;;
18610;SDS011;9435;52.122;5.502;2022-11-20T04:35:08;27.38;;;11.35;;
18610;SDS011;9435;52.122;5.502;2022-11-20T04:37:35;32.67;;;12.55;;
18610;SDS011;9435;52.122;5.502;2022-11-20T04:40:04;29.30;;;11.55;;
18610;SDS011;9435;52.122;5.502;2022-11-20T04:42:31;27.20;;;11.52;;
18610;SDS011;9435;52.122;5.502;2022-11-20T04:44:58;27.38;;;10.98;;
18610;SDS011;9435;52.122;5.502;2022-11-20T04:47:25;27.88;;;10.60;;
18610;SDS011;9435;52.122;5.502;2022-11-20T04:49:52;27.08;;;11.52;;
18610;SDS011;9435;52.122;5.502;2022-11-20T04:52:19;28.98;;;11.60;;
18610;SDS011;9435;52.122;5.502;2022-11-20T04:54:46;29.85;;;11.77;;
18610;SDS011;9435;52.122;5.502;2022-11-20T04:57:15;30.85;;;12.10;;
18610;SDS011;9435;52.122;5.502;2022-11-20T04:59:42;28.80;;;11.38;;
18610;SDS011;9435;52.122;5.502;2022-11-20T05:02:09;28.00;;;10.98;;
18610;SDS011;9435;52.122;5.502;2022-11-20T05:04:36;27.63;;;11.00;;
18610;SDS011;9435;52.122;5.502;2022-11-20T05:07:03;28.95;;;12.40;;
18610;SDS011;9435;52.122;5.502;2022-11-20T05:09:30;26.90;;;11.40;;
18610;SDS011;9435;52.122;5.502;2022-11-20T05:11:57;30.58;;;11.27;;
18610;SDS011;9435;52.122;5.502;2022-11-20T05:14:26;27.95;;;11.57;;
18610;SDS011;9435;52.122;5.502;2022-11-20T05:16:53;28.80;;;11.77;;
18610;SDS011;9435;52.122;5.502;2022-11-20T05:19:20;31.67;;;12.43;;
18610;SDS011;9435;52.122;5.502;2022-11-20T05:21:47;32.33;;;11.75;;
18610;SDS011;9435;52.122;5.502;2022-11-20T05:24:14;28.92;;;11.70;;
18610;SDS011;9435;52.122;5.502;2022-11-20T05:26:41;30.73;;;12.00;;
18610;SDS011;9435;52.122;5.502;2022-11-20T05:29:09;27.90;;;11.93;;
18610;SDS011;9435;52.122;5.502;2022-11-20T05:31:39;29.20;;;11.95;;
18610;SDS011;9435;52.122;5.502;2022-11-20T05:34:07;25.58;;;10.88;;
18610;SDS011;9435;52.122;5.502;2022-11-20T05:36:34;30.23;;;11.30;;
18610;SDS011;9435;52.122;5.502;2022-11-20T05:39:01;29.85;;;11.68;;
18610;SDS011;9435;52.122;5.502;2022-11-20T05:41:28;30.17;;;11.90;;
18610;SDS011;9435;52.122;5.502;2022-11-20T05:43:55;29.30;;;11.75;;
18610;SDS011;9435;52.122;5.502;2022-11-20T05:46:23;33.47;;;12.18;;
18610;SDS011;9435;52.122;5.502;2022-11-20T05:48:52;30.30;;;11.35;;
18610;SDS011;9435;52.122;5.502;2022-11-20T05:51:19;31.88;;;12.23;;
18610;SDS011;9435;52.122;5.502;2022-11-20T05:53:46;31.17;;;11.80;;
18610;SDS011;9435;52.122;5.502;2022-11-20T05:56:15;31.17;;;12.10;;
18610;SDS011;9435;52.122;5.502;2022-11-20T05:58:43;31.38;;;11.93;;
18610;SDS011;9435;52.122;5.502;2022-11-20T06:01:11;35.40;;;12.43;;
18610;SDS011;9435;52.122;5.502;2022-11-20T06:03:40;30.50;;;10.85;;
18610;SDS011;9435;52.122;5.502;2022-11-20T06:06:12;30.88;;;11.95;;
18610;SDS011;9435;52.122;5.502;2022-11-20T06:08:40;29.80;;;11.35;;
18610;SDS011;9435;52.122;5.502;2022-11-20T06:11:08;32.30;;;11.63;;
18610;SDS011;9435;52.122;5.502;2022-11-20T06:13:37;29.45;;;11.90;;
18610;SDS011;9435;52.122;5.502;2022-11-20T06:16:05;29.98;;;11.93;;
18610;SDS011;9435;52.122;5.502;2022-11-20T06:18:32;32.53;;;12.30;;
18610;SDS011;9435;52.122;5.502;2022-11-20T06:21:00;29.75;;;12.40;;
18610;SDS011;9435;52.122;5.502;2022-11-20T06:23:31;32.33;;;13.10;;
18610;SDS011;9435;52.122;5.502;2022-11-20T06:26:01;25.75;;;11.02;;
18610;SDS011;9435;52.122;5.502;2022-11-20T06:28:29;29.30;;;11.43;;
18610;SDS011;9435;52.122;5.502;2022-11-20T06:30:56;26.10;;;10.85;;
18610;SDS011;9435;52.122;5.502;2022-11-20T06:33:23;28.65;;;11.45;;
18610;SDS011;9435;52.122;5.502;2022-11-20T06:35:51;27.90;;;11.43;;
18610;SDS011;9435;52.122;5.502;2022-11-20T06:38:18;27.58;;;11.90;;
18610;SDS011;9435;52.122;5.502;2022-11-20T06:40:47;29.63;;;11.80;;
18610;SDS011;9435;52.122;5.502;2022-11-20T06:43:14;31.83;;;12.68;;
18610;SDS011;9435;52.122;5.502;2022-11-20T06:45:41;32.80;;;11.90;;
18610;SDS011;9435;52.122;5.502;2022-11-20T06:48:08;28.00;;;11.75;;
18610;SDS011;9435;52.122;5.502;2022-11-20T06:50:36;31.05;;;12.77;;
18610;SDS011;9435;52.122;5.502;2022-11-20T06:53:03;31.25;;;11.68;;
18610;SDS011;9435;52.122;5.502;2022-11-20T06:55:31;29.25;;;11.85;;
18610;SDS011;9435;52.122;5.502;2022-11-20T06:58:00;24.35;;;10.73;;
18610;SDS011;9435;52.122;5.502;2022-11-20T07:00:27;30.20;;;11.85;;
18610;SDS011;9435;52.122;5.502;2022-11-20T07:02:54;30.08;;;12.25;;
18610;SDS011;9435;52.122;5.502;2022-11-20T07:05:21;31.00;;;11.75;;
18610;SDS011;9435;52.122;5.502;2022-11-20T07:07:48;28.23;;;11.95;;
18610;SDS011;9435;52.122;5.502;2022-11-20T07:10:15;31.73;;;11.82;;
18610;SDS011;9435;52.122;5.502;2022-11-20T07:12:42;29.30;;;12.05;;
18610;SDS011;9435;52.122;5.502;2022-11-20T07:15:16;27.25;;;11.75;;
18610;SDS011;9435;52.122;5.502;2022-11-20T07:17:43;29.85;;;12.40;;
18610;SDS011;9435;52.122;5.502;2022-11-20T07:20:11;27.10;;;11.80;;
18610;SDS011;9435;52.122;5.502;2022-11-20T07:22:38;36.80;;;13.02;;
18610;SDS011;9435;52.122;5.502;2022-11-20T07:25:06;32.90;;;13.30;;
18610;SDS011;9435;52.122;5.502;2022-11-20T07:27:33;38.75;;;14.35;;
18610;SDS011;9435;52.122;5.502;2022-11-20T07:30:01;36.85;;;14.32;;
18610;SDS011;9435;52.122;5.502;2022-11-20T07:32:30;30.48;;;13.07;;
18610;SDS011;9435;52.122;5.502;2022-11-20T07:34:57;42.45;;;14.30;;
18610;SDS011;9435;52.122;5.502;2022-11-20T07:37:24;40.63;;;15.18;;
18610;SDS011;9435;52.122;5.502;2022-11-20T07:39:51;34.15;;;14.02;;
18610;SDS011;9435;52.122;5.502;2022-11-20T07:42:18;45.67;;;15.88;;
18610;SDS011;9435;52.122;5.502;2022-11-20T07:44:45;39.95;;;16.33;;
18610;SDS011;9435;52.122;5.502;2022-11-20T07:47:12;37.72;;;15.20;;
18610;SDS011;9435;52.122;5.502;2022-11-20T07:49:40;40.45;;;16.23;;
18610;SDS011;9435;52.122;5.502;2022-11-20T07:52:07;42.88;;;16.65;;
18610;SDS011;9435;52.122;5.502;2022-11-20T07:54:34;39.35;;;17.35;;
18610;SDS011;9435;52.122;5.502;2022-11-20T07:57:02;39.65;;;16.75;;
18610;SDS011;9435;52.122;5.502;2022-11-20T07:59:29;44.92;;;18.17;;
18610;SDS011;9435;52.122;5.502;2022-11-20T08:01:56;39.35;;;16.35;;
18610;SDS011;9435;52.122;5.502;2022-11-20T08:04:23;41.17;;;17.27;;
18610;SDS011;9435;52.122;5.502;2022-11-20T08:06:52;46.47;;;18.45;;
18610;SDS011;9435;52.122;5.502;2022-11-20T08:09:19;41.47;;;17.00;;
18610;SDS011;9435;52.122;5.502;2022-11-20T08:11:46;41.63;;;17.67;;
18610;SDS011;9435;52.122;5.502;2022-11-20T08:14:31;42.45;;;16.75;;
18610;SDS011;9435;52.122;5.502;2022-11-20T08:16:58;42.20;;;16.55;;
18610;SDS011;9435;52.122;5.502;2022-11-20T08:19:25;43.65;;;16.70;;
18610;SDS011;9435;52.122;5.502;2022-11-20T08:21:54;44.95;;;18.42;;
18610;SDS011;9435;52.122;5.502;2022-11-20T08:24:21;44.00;;;16.35;;
18610;SDS011;9435;52.122;5.502;2022-11-20T08:26:49;38.78;;;17.02;;
18610;SDS011;9435;52.122;5.502;2022-11-20T08:29:17;42.08;;;16.98;;
18610;SDS011;9435;52.122;5.502;2022-11-20T08:31:44;47.60;;;19.20;;
18610;SDS011;9435;52.122;5.502;2022-11-20T08:34:11;49.88;;;18.75;;
18610;SDS011;9435;52.122;5.502;2022-11-20T08:36:38;41.13;;;17.90;;
18610;SDS011;9435;52.122;5.502;2022-11-20T08:39:06;46.45;;;19.10;;
18610;SDS011;9435;52.122;5.502;2022-11-20T08:41:33;48.28;;;18.80;;
18610;SDS011;9435;52.122;5.502;2022-11-20T08:44:02;48.40;;;18.52;;
18610;SDS011;9435;52.122;5.502;2022-11-20T08:46:35;52.50;;;19.45;;
18610;SDS011;9435;52.122;5.502;2022-11-20T08:49:03;42.83;;;17.90;;
18610;SDS011;9435;52.122;5.502;2022-11-20T08:51:31;52.53;;;18.98;;
18610;SDS011;9435;52.122;5.502;2022-11-20T08:53:58;46.50;;;19.45;;
18610;SDS011;9435;52.122;5.502;2022-11-20T08:56:26;49.63;;;19.83;;
18610;SDS011;9435;52.122;5.502;2022-11-20T08:58:54;51.85;;;20.23;;
18610;SDS011;9435;52.122;5.502;2022-11-20T09:01:21;47.38;;;19.73;;
18610;SDS011;9435;52.122;5.502;2022-11-20T09:03:49;44.92;;;18.23;;
18610;SDS011;9435;52.122;5.502;2022-11-20T09:06:16;48.05;;;19.23;;
18610;SDS011;9435;52.122;5.502;2022-11-20T09:08:43;49.30;;;20.33;;
18610;SDS011;9435;52.122;5.502;2022-11-20T09:11:10;48.08;;;19.60;;
18610;SDS011;9435;52.122;5.502;2022-11-20T09:13:39;57.17;;;20.90;;
18610;SDS011;9435;52.122;5.502;2022-11-20T09:16:06;47.80;;;20.75;;
18610;SDS011;9435;52.122;5.502;2022-11-20T09:18:35;52.47;;;22.13;;
18610;SDS011;9435;52.122;5.502;2022-11-20T09:21:03;48.88;;;21.75;;
18610;SDS011;9435;52.122;5.502;2022-11-20T09:23:32;53.67;;;22.85;;
18610;SDS011;9435;52.122;5.502;2022-11-20T09:26:04;52.60;;;22.15;;
18610;SDS011;9435;52.122;5.502;2022-11-20T09:28:32;49.15;;;21.77;;
18610;SDS011;9435;52.122;5.502;2022-11-20T09:31:03;57.17;;;22.83;;
18610;SDS011;9435;52.122;5.502;2022-11-20T09:33:31;55.15;;;22.77;;
18610;SDS011;9435;52.122;5.502;2022-11-20T09:35:58;57.47;;;23.70;;
18610;SDS011;9435;52.122;5.502;2022-11-20T09:38:25;53.00;;;23.20;;
18610;SDS011;9435;52.122;5.502;2022-11-20T09:40:55;53.15;;;23.77;;
18610;SDS011;9435;52.122;5.502;2022-11-20T09:43:27;54.22;;;23.25;;
18610;SDS011;9435;52.122;5.502;2022-11-20T09:46:06;50.95;;;22.23;;
18610;SDS011;9435;52.122;5.502;2022-11-20T09:48:42;51.90;;;22.90;;
18610;SDS011;9435;52.122;5.502;2022-11-20T09:51:23;52.53;;;22.63;;
18610;SDS011;9435;52.122;5.502;2022-11-20T09:54:05;56.40;;;24.33;;
18610;SDS011;9435;52.122;5.502;2022-11-20T09:56:40;54.22;;;23.20;;
18610;SDS011;9435;52.122;5.502;2022-11-20T09:59:14;54.78;;;23.05;;
18610;SDS011;9435;52.122;5.502;2022-11-20T10:01:54;52.17;;;22.75;;
18610;SDS011;9435;52.122;5.502;2022-11-20T10:04:23;52.30;;;22.88;;
18610;SDS011;9435;52.122;5.502;2022-11-20T10:06:51;51.83;;;22.17;;
18610;SDS011;9435;52.122;5.502;2022-11-20T10:09:27;51.35;;;22.50;;
18610;SDS011;9435;52.122;5.502;2022-11-20T10:12:02;48.85;;;21.50;;
18610;SDS011;9435;52.122;5.502;2022-11-20T10:14:41;51.20;;;22.42;;
18610;SDS011;9435;52.122;5.502;2022-11-20T10:17:23;49.17;;;22.40;;
18610;SDS011;9435;52.122;5.502;2022-11-20T10:20:10;55.08;;;22.67;;
18610;SDS011;9435;52.122;5.502;2022-11-20T10:22:50;50.53;;;22.75;;
18610;SDS011;9435;52.122;5.502;2022-11-20T10:25:29;48.53;;;21.35;;
18610;SDS011;9435;52.122;5.502;2022-11-20T10:28:16;49.95;;;22.33;;
18610;SDS011;9435;52.122;5.502;2022-11-20T10:30:55;51.60;;;22.52;;
18610;SDS011;9435;52.122;5.502;2022-11-20T10:33:27;48.88;;;22.15;;
18610;SDS011;9435;52.122;5.502;2022-11-20T10:36:00;52.58;;;23.48;;
18610;SDS011;9435;52.122;5.502;2022-11-20T10:38:35;55.08;;;24.27;;
18610;SDS011;9435;52.122;5.502;2022-11-20T10:41:05;54.30;;;23.67;;
18610;SDS011;9435;52.122;5.502;2022-11-20T10:43:52;53.28;;;23.08;;
18610;SDS011;9435;52.122;5.502;2022-11-20T10:46:23;51.92;;;22.80;;
18610;SDS011;9435;52.122;5.502;2022-11-20T10:48:53;53.83;;;22.60;;
18610;SDS011;9435;52.122;5.502;2022-11-20T10:51:25;52.25;;;22.45;;
18610;SDS011;9435;52.122;5.502;2022-11-20T10:54:03;51.50;;;23.35;;
18610;SDS011;9435;52.122;5.502;2022-11-20T10:56:39;50.65;;;22.70;;
18610;SDS011;9435;52.122;5.502;2022-11-20T10:59:19;59.33;;;24.70;;
18610;SDS011;9435;52.122;5.502;2022-11-20T11:02:15;54.67;;;22.88;;
18610;SDS011;9435;52.122;5.502;2022-11-20T11:04:46;56.13;;;22.67;;
18610;SDS011;9435;52.122;5.502;2022-11-20T11:07:16;50.90;;;22.55;;
18610;SDS011;9435;52.122;5.502;2022-11-20T11:09:48;55.83;;;23.52;;
18610;SDS011;9435;52.122;5.502;2022-11-20T11:12:17;51.88;;;23.38;;
18610;SDS011;9435;52.122;5.502;2022-11-20T11:14:46;57.40;;;25.27;;
18610;SDS011;9435;52.122;5.502;2022-11-20T11:17:25;64.32;;;29.08;;
18610;SDS011;9435;52.122;5.502;2022-11-20T11:20:02;61.40;;;26.45;;
18610;SDS011;9435;52.122;5.502;2022-11-20T11:22:31;62.50;;;26.17;;
18610;SDS011;9435;52.122;5.502;2022-11-20T11:25:00;65.95;;;26.90;;
18610;SDS011;9435;52.122;5.502;2022-11-20T11:27:27;60.78;;;26.45;;
18610;SDS011;9435;52.122;5.502;2022-11-20T11:30:01;62.05;;;26.52;;
18610;SDS011;9435;52.122;5.502;2022-11-20T11:32:37;65.03;;;26.90;;
18610;SDS011;9435;52.122;5.502;2022-11-20T11:35:06;61.78;;;26.77;;
18610;SDS011;9435;52.122;5.502;2022-11-20T11:37:44;66.97;;;26.98;;
18610;SDS011;9435;52.122;5.502;2022-11-20T11:40:13;58.25;;;26.67;;
18610;SDS011;9435;52.122;5.502;2022-11-20T11:42:41;62.00;;;26.95;;
18610;SDS011;9435;52.122;5.502;2022-11-20T11:45:11;61.95;;;26.92;;
18610;SDS011;9435;52.122;5.502;2022-11-20T11:47:44;60.08;;;27.15;;
18610;SDS011;9435;52.122;5.502;2022-11-20T11:50:15;62.55;;;27.58;;
18610;SDS011;9435;52.122;5.502;2022-11-20T11:52:45;63.78;;;27.75;;
18610;SDS011;9435;52.122;5.502;2022-11-20T11:55:17;62.72;;;27.85;;
18610;SDS011;9435;52.122;5.502;2022-11-20T11:57:52;64.35;;;27.95;;
18610;SDS011;9435;52.122;5.502;2022-11-20T12:00:26;64.40;;;28.35;;
18610;SDS011;9435;52.122;5.502;2022-11-20T12:02:55;64.13;;;27.23;;
18610;SDS011;9435;52.122;5.502;2022-11-20T12:05:33;67.55;;;27.60;;
18610;SDS011;9435;52.122;5.502;2022-11-20T12:08:10;68.85;;;28.15;;
18610;SDS011;9435;52.122;5.502;2022-11-20T12:10:43;66.57;;;27.73;;
18610;SDS011;9435;52.122;5.502;2022-11-20T12:16:14;72.47;;;32.00;;
18610;SDS011;9435;52.122;5.502;2022-11-20T12:18:45;64.47;;;28.90;;
18610;SDS011;9435;52.122;5.502;2022-11-20T12:21:20;66.47;;;28.63;;
18610;SDS011;9435;52.122;5.502;2022-11-20T12:24:06;65.60;;;27.63;;
18610;SDS011;9435;52.122;5.502;2022-11-20T12:26:51;66.22;;;27.98;;
18610;SDS011;9435;52.122;5.502;2022-11-20T12:29:32;64.70;;;27.27;;
18610;SDS011;9435;52.122;5.502;2022-11-20T12:32:19;66.70;;;27.75;;
18610;SDS011;9435;52.122;5.502;2022-11-20T12:35:04;68.15;;;28.73;;
18610;SDS011;9435;52.122;5.502;2022-11-20T12:38:00;59.33;;;27.13;;
18610;SDS011;9435;52.122;5.502;2022-11-20T12:40:39;63.05;;;27.42;;
18610;SDS011;9435;52.122;5.502;2022-11-20T12:43:13;60.35;;;27.42;;
18610;SDS011;9435;52.122;5.502;2022-11-20T12:46:22;60.95;;;26.75;;
18610;SDS011;9435;52.122;5.502;2022-11-20T12:49:04;59.42;;;26.88;;
18610;SDS011;9435;52.122;5.502;2022-11-20T12:54:56;58.15;;;26.08;;
18610;SDS011;9435;52.122;5.502;2022-11-20T12:57:43;60.38;;;26.65;;
18610;SDS011;9435;52.122;5.502;2022-11-20T13:00:25;57.05;;;26.42;;
18610;SDS011;9435;52.122;5.502;2022-11-20T13:03:00;60.15;;;26.60;;
18610;SDS011;9435;52.122;5.502;2022-11-20T13:05:51;59.38;;;26.88;;
18610;SDS011;9435;52.122;5.502;2022-11-20T13:08:23;62.35;;;27.42;;
18610;SDS011;9435;52.122;5.502;2022-11-20T13:10:56;62.92;;;27.67;;
18610;SDS011;9435;52.122;5.502;2022-11-20T13:13:32;63.95;;;29.77;;
18610;SDS011;9435;52.122;5.502;2022-11-20T13:16:10;61.53;;;26.85;;
18610;SDS011;9435;52.122;5.502;2022-11-20T13:18:42;65.07;;;28.35;;
18610;SDS011;9435;52.122;5.502;2022-11-20T13:21:16;59.97;;;26.70;;
18610;SDS011;9435;52.122;5.502;2022-11-20T13:23:44;60.92;;;27.60;;
18610;SDS011;9435;52.122;5.502;2022-11-20T13:26:17;62.42;;;27.73;;
18610;SDS011;9435;52.122;5.502;2022-11-20T13:28:46;62.83;;;27.98;;
18610;SDS011;9435;52.122;5.502;2022-11-20T13:31:29;63.05;;;26.90;;
18610;SDS011;9435;52.122;5.502;2022-11-20T13:33:58;62.67;;;26.60;;
18610;SDS011;9435;52.122;5.502;2022-11-20T13:36:28;60.80;;;26.52;;
18610;SDS011;9435;52.122;5.502;2022-11-20T13:38:57;60.83;;;26.27;;
18610;SDS011;9435;52.122;5.502;2022-11-20T13:41:27;56.10;;;25.42;;
18610;SDS011;9435;52.122;5.502;2022-11-20T13:44:04;59.30;;;26.38;;
18610;SDS011;9435;52.122;5.502;2022-11-20T13:46:37;57.47;;;26.10;;
18610;SDS011;9435;52.122;5.502;2022-11-20T13:49:09;59.33;;;26.25;;
18610;SDS011;9435;52.122;5.502;2022-11-20T13:51:43;61.03;;;26.70;;
18610;SDS011;9435;52.122;5.502;2022-11-20T13:54:34;57.50;;;26.73;;
18610;SDS011;9435;52.122;5.502;2022-11-20T14:00:24;59.63;;;25.63;;
18610;SDS011;9435;52.122;5.502;2022-11-20T14:02:58;60.38;;;25.75;;
18610;SDS011;9435;52.122;5.502;2022-11-20T14:05:34;62.13;;;26.33;;
18610;SDS011;9435;52.122;5.502;2022-11-20T14:08:03;62.88;;;26.50;;
18610;SDS011;9435;52.122;5.502;2022-11-20T14:10:32;63.63;;;26.08;;
18610;SDS011;9435;52.122;5.502;2022-11-20T14:13:10;65.13;;;27.30;;
18610;SDS011;9435;52.122;5.502;2022-11-20T14:15:41;64.78;;;26.40;;
18610;SDS011;9435;52.122;5.502;2022-11-20T14:18:12;60.63;;;27.10;;
18610;SDS011;9435;52.122;5.502;2022-11-20T14:20:47;61.17;;;26.17;;
18610;SDS011;9435;52.122;5.502;2022-11-20T14:23:23;63.20;;;26.63;;
18610;SDS011;9435;52.122;5.502;2022-11-20T14:25:51;63.40;;;26.60;;
18610;SDS011;9435;52.122;5.502;2022-11-20T14:28:21;62.03;;;26.58;;
18610;SDS011;9435;52.122;5.502;2022-11-20T14:30:52;63.58;;;27.55;;
18610;SDS011;9435;52.122;5.502;2022-11-20T14:33:20;67.43;;;28.42;;
18610;SDS011;9435;52.122;5.502;2022-11-20T14:35:50;62.65;;;28.38;;
18610;SDS011;9435;52.122;5.502;2022-11-20T14:38:20;67.90;;;29.92;;
18610;SDS011;9435;52.122;5.502;2022-11-20T14:40:51;63.33;;;28.85;;
18610;SDS011;9435;52.122;5.502;2022-11-20T14:43:21;66.32;;;29.15;;
18610;SDS011;9435;52.122;5.502;2022-11-20T14:45:52;65.65;;;29.83;;
18610;SDS011;9435;52.122;5.502;2022-11-20T14:48:24;64.78;;;30.33;;
18610;SDS011;9435;52.122;5.502;2022-11-20T14:50:56;73.38;;;32.15;;
18610;SDS011;9435;52.122;5.502;2022-11-20T14:53:24;74.65;;;30.85;;
18610;SDS011;9435;52.122;5.502;2022-11-20T14:55:55;69.97;;;30.65;;
18610;SDS011;9435;52.122;5.502;2022-11-20T14:58:26;70.60;;;31.08;;
18610;SDS011;9435;52.122;5.502;2022-11-20T15:00:54;74.07;;;31.05;;
18610;SDS011;9435;52.122;5.502;2022-11-20T15:03:22;76.80;;;32.75;;